Terminal Aerodrome Forecast
Issued by NWS Twin Cities, MN

Home | Current Version | Previous Version | Graphics & Text | Print | Product List | Glossary On
Versions: 1 2 3 4 5 6 7 8 9 10 11 12 13 14 15 16 17 18 19
000
FTUS43 KMPX 140520
TAFEAU
TAF
KEAU 140520Z 1406/1506 04003KT P6SM SCT120
     FM141500 08008KT P6SM BKN120 OVC250
     FM142100 05007KT 6SM -SHRA OVC015
     FM142300 03008KT 5SM -SHRA BR OVC007=

USA.gov is the U.S. government's official web portal to all federal, state and local government web resources and services.